Pagina principale
METAR-TAF:

METAR-TAF

Aeroporti :

Aeroporto di Treviso-Sant'Angelo

Treviso, Italia

latitudine: 45-39N, longitudine: 012-11E, altezza: 18 m

Osservazione

Il bollettino è stato emesso 31 minuti fa, alle 08:50 UTC
Vento 3 kt da direzioni variabili
Temperature 13°C
Umidità 62%
Pressione 1005 hPa
Visibilità 10 km o più

METAR: LIPH 170850Z AUTO VRB03KT 9999 BKN130/// 13/06 Q1005

Ora: 11:21 (09:21 UTC)

Previsione

Il bollettino è stato emesso 4 ore e 21 minuti fa, alle 05:00 UTC
Previsione valida dal 17 alle 06 UTC al 18 alle 06 UTC
Vento 5 kt da direzioni variabili
Visibilità 10 km o più
Poco nuvoloso ad un'altezza di 3000 ft
Temporaneamente
dal 17 alle 13 UTC al 17 alle 18 UTC
temporale, pioggia
Temporaneamente
dal 17 alle 18 UTC al 17 alle 24 UTC
pioggia
Evoluzione graduale
dal 17 alle 19 UTC al 17 alle 21 UTC
Vento 10 kt da nord-est

TAF: LIPH 170500Z 1706/1806 VRB05KT 9999 FEW030 TEMPO 1713/1718 TSRA TEMPO 1718/1724 RA BECMG 1719/1721 04010KT

Osservazioni e previsioni meteorologiche di più di 4000 aeroporti (messaggi METAR e TAF).

Le stazioni disponibili sono rappresentate dai dischi gialli e rossi sulla carta.

Puntare il mouse per vedere il nome della stazione.

Clicca sopra per visualizzare le osservazioni e previsioni meteorologiche.

Per cambiare la mappa : fare clic sui pulsanti verdi con una croce nera per ingrandire, il pulsante verde con un trattino per diminuire, o sulla freccia verde per le mappe adiacenti.


METAR-TAF: